createdAt,value
2018-04-29T00:01:14.684Z,100403
2018-04-29T00:03:43.570Z,100397
2018-04-29T00:06:12.506Z,100406
2018-04-29T00:08:40.695Z,100406
2018-04-29T00:11:08.835Z,100407
2018-04-29T00:13:36.988Z,100400
2018-04-29T00:16:05.137Z,100397
2018-04-29T00:18:33.293Z,100400
2018-04-29T00:21:01.454Z,100399
2018-04-29T00:23:29.596Z,100402
2018-04-29T00:25:57.742Z,100398
2018-04-29T00:28:26.690Z,100396
2018-04-29T00:30:54.834Z,100399
2018-04-29T00:33:23.002Z,100403
2018-04-29T00:35:51.142Z,100403
2018-04-29T00:38:20.034Z,100404
2018-04-29T00:40:48.178Z,100404
2018-04-29T00:43:16.314Z,100409
2018-04-29T00:45:44.484Z,100396
2018-04-29T00:48:12.617Z,100404
2018-04-29T00:50:40.767Z,100406
2018-04-29T00:53:08.950Z,100395
2018-04-29T00:55:37.077Z,100389
2018-04-29T00:58:05.275Z,100393
2018-04-29T01:00:33.514Z,100387
2018-04-29T01:03:01.750Z,100393
2018-04-29T01:05:30.695Z,100389
2018-04-29T01:07:58.846Z,100383
2018-04-29T01:10:27.161Z,100382
2018-04-29T01:12:55.313Z,100388
2018-04-29T01:15:23.476Z,100384
2018-04-29T01:17:51.641Z,100386
2018-04-29T01:20:19.788Z,100383
2018-04-29T01:22:48.005Z,100388
2018-04-29T01:25:16.878Z,100390
2018-04-29T01:27:45.048Z,100390
2018-04-29T01:30:13.259Z,100400
2018-04-29T01:32:41.391Z,100404
2018-04-29T01:35:09.551Z,100399
2018-04-29T01:37:38.524Z,100390
2018-04-29T01:40:06.676Z,100386
2018-04-29T01:42:34.845Z,100398
2018-04-29T01:45:03.015Z,100405
2018-04-29T01:47:31.151Z,100391
2018-04-29T01:49:59.303Z,100400
2018-04-29T01:52:28.260Z,100396
2018-04-29T01:54:56.394Z,100399
2018-04-29T01:57:24.543Z,100398
2018-04-29T01:59:53.460Z,100396
2018-04-29T02:02:21.606Z,100397
2018-04-29T02:04:50.571Z,100394
2018-04-29T02:07:18.722Z,100406
2018-04-29T02:09:46.859Z,100405
2018-04-29T02:12:15.041Z,100401
2018-04-29T02:14:43.182Z,100404
2018-04-29T02:17:12.108Z,100400
2018-04-29T02:19:40.293Z,100400
2018-04-29T02:22:08.433Z,100400
2018-04-29T02:24:36.593Z,100391
2018-04-29T02:27:04.778Z,100407
2018-04-29T02:29:32.917Z,100398
2018-04-29T02:32:01.150Z,100394
2018-04-29T02:34:29.302Z,100397
2018-04-29T02:36:57.457Z,100389
2018-04-29T02:39:25.641Z,100386
2018-04-29T02:41:54.563Z,100382
2018-04-29T02:44:22.717Z,100396
2018-04-29T02:46:50.865Z,100381
2018-04-29T02:49:19.039Z,100381
2018-04-29T02:51:47.946Z,100372
2018-04-29T02:54:16.107Z,100383
2018-04-29T02:56:45.040Z,100386
2018-04-29T02:59:13.185Z,100386
2018-04-29T03:01:41.358Z,100393
2018-04-29T03:04:09.524Z,100383
2018-04-29T03:06:38.438Z,100391
2018-04-29T03:09:06.588Z,100386
2018-04-29T03:11:34.767Z,100380
2018-04-29T03:14:02.943Z,100382
2018-04-29T03:16:31.107Z,100378
2018-04-29T03:18:59.282Z,100377
2018-04-29T03:21:27.461Z,100376
2018-04-29T03:23:55.621Z,100377
2018-04-29T03:26:24.526Z,100371
2018-04-29T03:28:52.710Z,100368
2018-04-29T03:31:20.866Z,100366
2018-04-29T03:33:49.037Z,100374
2018-04-29T03:36:17.202Z,100379
2018-04-29T03:38:45.375Z,100391
2018-04-29T03:41:13.520Z,100391
2018-04-29T03:43:41.668Z,100391
2018-04-29T03:46:09.815Z,100392
2018-04-29T03:48:37.991Z,100385
2018-04-29T03:51:06.129Z,100390
2018-04-29T03:53:34.311Z,100392
2018-04-29T03:56:02.557Z,100393
2018-04-29T03:58:48.190Z,100392
2018-04-29T04:01:34.054Z,100395
2018-04-29T04:04:03.721Z,100395
2018-04-29T04:06:31.878Z,100392
2018-04-29T04:09:00.023Z,100394
2018-04-29T04:11:28.175Z,100396
2018-04-29T04:13:57.112Z,100397
2018-04-29T04:16:25.277Z,100396
2018-04-29T04:18:53.435Z,100397
2018-04-29T04:21:21.584Z,100396
2018-04-29T04:23:50.633Z,100389
2018-04-29T04:26:18.682Z,100397
2018-04-29T04:28:46.823Z,100395
2018-04-29T04:31:15.042Z,100381
2018-04-29T04:33:43.173Z,100385
2018-04-29T04:36:12.098Z,100386
2018-04-29T04:38:40.238Z,100382
2018-04-29T04:41:08.427Z,100381
2018-04-29T04:43:36.578Z,100379
2018-04-29T04:46:05.495Z,100381
2018-04-29T04:48:33.685Z,100386
2018-04-29T04:51:01.855Z,100395
2018-04-29T04:53:30.013Z,100401
2018-04-29T04:55:58.184Z,100409
2018-04-29T04:58:26.327Z,100413
2018-04-29T05:00:54.482Z,100420
2018-04-29T05:03:22.619Z,100420
2018-04-29T05:05:50.780Z,100426
2018-04-29T05:08:18.921Z,100418
2018-04-29T05:10:47.856Z,100402
2018-04-29T05:13:16.027Z,100409
2018-04-29T05:15:44.219Z,100410
2018-04-29T05:18:12.354Z,100420
2018-04-29T05:20:40.528Z,100420
2018-04-29T05:23:08.712Z,100413
2018-04-29T05:25:36.864Z,100418
2018-04-29T05:28:04.996Z,100416
2018-04-29T05:30:33.908Z,100433
2018-04-29T05:33:02.819Z,100438
2018-04-29T05:35:30.996Z,100422
2018-04-29T05:37:59.174Z,100425
2018-04-29T05:40:27.356Z,100431
2018-04-29T05:42:55.488Z,100423
2018-04-29T05:45:24.448Z,100426
2018-04-29T05:47:52.609Z,100443
2018-04-29T05:50:20.762Z,100440
2018-04-29T05:52:48.934Z,100446
2018-04-29T05:55:17.082Z,100444
2018-04-29T05:57:45.256Z,100448
2018-04-29T06:00:13.417Z,100451
2018-04-29T06:02:42.331Z,100449
2018-04-29T06:05:10.513Z,100450
2018-04-29T06:07:38.658Z,100445
2018-04-29T06:10:07.577Z,100442
2018-04-29T06:12:35.730Z,100443
2018-04-29T06:15:03.879Z,100434
2018-04-29T06:17:32.058Z,100435
2018-04-29T06:20:01.044Z,100439
2018-04-29T06:22:30.036Z,100436
2018-04-29T06:24:58.173Z,100439
2018-04-29T06:27:26.363Z,100437
2018-04-29T06:29:54.523Z,100439
2018-04-29T06:32:22.692Z,100437
2018-04-29T06:34:50.840Z,100439
2018-04-29T06:37:19.010Z,100443
2018-04-29T06:39:47.172Z,100445
2018-04-29T06:42:15.434Z,100444
2018-04-29T06:44:43.579Z,100441
2018-04-29T06:47:11.746Z,100441
2018-04-29T06:49:39.895Z,100444
2018-04-29T06:52:08.077Z,100451
2018-04-29T06:54:36.213Z,100442
2018-04-29T06:57:04.352Z,100450
2018-04-29T06:59:33.337Z,100442
2018-04-29T07:02:01.444Z,100441
2018-04-29T07:04:29.597Z,100441
2018-04-29T07:06:57.790Z,100433
2018-04-29T07:09:25.945Z,100443
2018-04-29T07:11:55.180Z,100439
2018-04-29T07:14:23.324Z,100445
2018-04-29T07:16:52.258Z,100439
2018-04-29T07:19:20.395Z,100444
2018-04-29T07:21:48.551Z,100445
2018-04-29T07:24:17.451Z,100444
2018-04-29T07:26:45.645Z,100450
2018-04-29T07:29:13.848Z,100458
2018-04-29T07:31:41.972Z,100451
2018-04-29T07:34:10.157Z,100445
2018-04-29T07:36:38.306Z,100442
2018-04-29T07:39:06.441Z,100443
2018-04-29T07:41:34.585Z,100449
2018-04-29T07:44:02.754Z,100445
2018-04-29T07:46:30.976Z,100443
2018-04-29T07:48:59.099Z,100445
2018-04-29T07:51:27.237Z,100437
2018-04-29T07:53:56.142Z,100426
2018-04-29T07:56:25.066Z,100424
2018-04-29T07:58:53.224Z,100424
2018-04-29T08:01:21.430Z,100412
2018-04-29T08:03:49.582Z,100407
2018-04-29T08:06:17.734Z,100402
2018-04-29T08:08:45.867Z,100400
2018-04-29T08:11:14.081Z,100366
2018-04-29T08:13:42.245Z,100408
2018-04-29T08:16:10.406Z,100401
2018-04-29T08:18:39.443Z,100406
2018-04-29T08:21:07.578Z,100404
2018-04-29T08:23:35.715Z,100403
2018-04-29T08:26:03.876Z,100407
2018-04-29T08:28:32.027Z,100407
2018-04-29T08:31:00.185Z,100407
2018-04-29T08:33:28.351Z,100406
2018-04-29T08:35:56.501Z,100410
2018-04-29T08:38:25.447Z,100414
2018-04-29T08:40:53.586Z,100400
2018-04-29T08:43:21.787Z,100401
2018-04-29T08:45:49.930Z,100402
2018-04-29T08:48:18.082Z,100404
2018-04-29T08:50:46.993Z,100398
2018-04-29T08:53:15.207Z,100410
2018-04-29T08:55:43.458Z,100415
2018-04-29T08:58:11.647Z,100420
2018-04-29T09:00:39.809Z,100414
2018-04-29T09:03:08.145Z,100415
2018-04-29T09:05:37.060Z,100425
2018-04-29T09:08:08.717Z,100420
2018-04-29T09:10:37.073Z,100409
2018-04-29T09:13:06.146Z,100398
2018-04-29T09:15:34.277Z,100398
2018-04-29T09:18:02.434Z,100406
2018-04-29T09:20:30.653Z,100397
2018-04-29T09:22:58.816Z,100401
2018-04-29T09:25:27.008Z,100414
2018-04-29T09:27:55.161Z,100394
2018-04-29T09:30:23.453Z,100401
2018-04-29T09:32:51.694Z,100399
2018-04-29T09:35:19.860Z,100408
2018-04-29T09:37:49.824Z,100406
2018-04-29T09:40:18.833Z,100394
2018-04-29T09:42:47.767Z,100390
2018-04-29T09:45:15.984Z,100389
2018-04-29T09:47:44.883Z,100389
2018-04-29T09:50:13.818Z,100387
2018-04-29T09:52:41.987Z,100382
2018-04-29T09:55:10.147Z,100386
2018-04-29T09:57:38.385Z,100389
2018-04-29T10:00:06.568Z,100388
2018-04-29T10:02:34.745Z,100388
2018-04-29T10:05:03.670Z,100386
2018-04-29T10:07:31.813Z,100385
2018-04-29T10:10:00.004Z,100377
2018-04-29T10:12:28.162Z,100378
2018-04-29T10:14:56.361Z,100364
2018-04-29T10:17:24.589Z,100361
2018-04-29T10:19:53.543Z,100372
2018-04-29T10:22:21.666Z,100378
2018-04-29T10:24:50.576Z,100388
2018-04-29T10:27:18.713Z,100382
2018-04-29T10:29:47.681Z,100375
2018-04-29T10:32:15.842Z,100375
2018-04-29T10:34:43.982Z,100375
2018-04-29T10:37:12.162Z,100366
2018-04-29T10:39:40.369Z,100355
2018-04-29T10:42:08.531Z,100351
2018-04-29T10:44:36.686Z,100344
2018-04-29T10:47:04.825Z,100358
2018-04-29T10:49:37.030Z,100348
2018-04-29T10:52:05.215Z,100349
2018-04-29T10:54:33.362Z,100352
2018-04-29T10:57:01.547Z,100346
2018-04-29T10:59:29.702Z,100345
2018-04-29T11:01:57.845Z,100351
2018-04-29T11:04:26.765Z,100341
2018-04-29T11:06:54.905Z,100335
2018-04-29T11:09:23.063Z,100335
2018-04-29T11:11:51.232Z,100322
2018-04-29T11:14:20.778Z,100317
2018-04-29T11:16:48.931Z,100313
2018-04-29T11:19:17.875Z,100307
2018-04-29T11:21:46.058Z,100317
2018-04-29T11:24:14.237Z,100313
2018-04-29T11:26:42.419Z,100319
2018-04-29T11:29:10.604Z,100325
2018-04-29T11:31:38.750Z,100312
2018-04-29T11:34:06.938Z,100298
2018-04-29T11:36:35.226Z,100296
2018-04-29T11:39:03.377Z,100305
2018-04-29T11:41:31.523Z,100303
2018-04-29T11:43:59.943Z,100300
2018-04-29T11:46:28.098Z,100309
2018-04-29T11:48:56.290Z,100300
2018-04-29T11:51:24.460Z,100288
2018-04-29T11:53:52.600Z,100306
2018-04-29T11:56:20.772Z,100303
2018-04-29T11:58:48.905Z,100302
2018-04-29T12:01:18.011Z,100293
2018-04-29T12:03:46.203Z,100298
2018-04-29T12:06:14.404Z,100300
2018-04-29T12:08:42.568Z,100294
2018-04-29T12:11:10.791Z,100292
2018-04-29T12:13:39.738Z,100287
2018-04-29T12:16:07.874Z,100276
2018-04-29T12:18:36.242Z,100275
2018-04-29T12:21:04.393Z,100268
2018-04-29T12:23:32.569Z,100272
2018-04-29T12:26:01.505Z,100257
2018-04-29T12:28:29.666Z,100260
2018-04-29T12:30:57.808Z,100253
2018-04-29T12:33:26.741Z,100247
2018-04-29T12:35:54.911Z,100247
2018-04-29T12:38:23.041Z,100250
2018-04-29T12:40:52.062Z,100244
2018-04-29T12:43:20.313Z,100244
2018-04-29T12:45:48.506Z,100241
2018-04-29T12:48:16.843Z,100224
2018-04-29T12:50:44.999Z,100219
2018-04-29T12:53:13.175Z,100209
2018-04-29T12:55:41.312Z,100203
2018-04-29T12:58:09.469Z,100193
2018-04-29T13:00:38.485Z,100178
2018-04-29T13:03:06.717Z,100181
2018-04-29T13:05:35.621Z,100184
2018-04-29T13:08:04.534Z,100193
2018-04-29T13:10:32.683Z,100199
2018-04-29T13:13:00.873Z,100193
2018-04-29T13:15:29.066Z,100196
2018-04-29T13:17:57.266Z,100192
2018-04-29T13:20:25.425Z,100183
2018-04-29T13:22:53.681Z,100179
2018-04-29T13:25:21.865Z,100187
2018-04-29T13:27:50.031Z,100172
2018-04-29T13:30:18.173Z,100179
2018-04-29T13:32:46.352Z,100179
2018-04-29T13:35:15.122Z,100185
2018-04-29T13:37:44.021Z,100177
2018-04-29T13:40:12.213Z,100163
2018-04-29T13:42:40.353Z,100161
2018-04-29T13:45:09.293Z,100158
2018-04-29T13:47:37.436Z,100157
2018-04-29T13:50:05.644Z,100144
2018-04-29T13:52:33.897Z,100137
2018-04-29T13:55:02.187Z,100129
2018-04-29T13:57:30.408Z,100131
2018-04-29T13:59:59.363Z,100130
2018-04-29T14:02:27.552Z,100125
2018-04-29T14:04:55.736Z,100122
2018-04-29T14:07:23.907Z,100119
2018-04-29T14:09:52.172Z,100109
2018-04-29T14:12:20.431Z,100107
2018-04-29T14:14:48.676Z,100103
2018-04-29T14:17:16.834Z,100110
2018-04-29T14:19:45.889Z,100090
2018-04-29T14:22:14.079Z,100076
2018-04-29T14:24:42.176Z,100068
2018-04-29T14:27:11.139Z,100070
2018-04-29T14:29:39.342Z,100067
2018-04-29T14:32:08.434Z,100061
2018-04-29T14:34:36.677Z,100058
2018-04-29T14:37:04.847Z,100056
2018-04-29T14:39:33.113Z,100051
2018-04-29T14:42:01.265Z,100052
2018-04-29T14:44:29.500Z,100060
2018-04-29T14:46:57.662Z,100048
2018-04-29T14:49:26.699Z,100048
2018-04-29T14:51:54.787Z,100038
2018-04-29T14:54:23.021Z,100048
2018-04-29T14:56:51.313Z,100049
2018-04-29T14:59:19.477Z,100051
2018-04-29T15:01:47.831Z,100036
2018-04-29T15:04:16.755Z,100035
2018-04-29T15:06:44.957Z,100034
2018-04-29T15:09:13.183Z,100040
2018-04-29T15:11:41.353Z,100031
2018-04-29T15:14:09.514Z,100045
2018-04-29T15:16:38.454Z,100040
2018-04-29T15:19:06.633Z,100042
2018-04-29T15:21:34.793Z,100042
2018-04-29T15:24:02.941Z,100047
2018-04-29T15:26:31.114Z,100035
2018-04-29T15:28:59.288Z,100035
2018-04-29T15:31:27.442Z,100020
2018-04-29T15:33:55.587Z,100006
2018-04-29T15:36:23.764Z,100003
2018-04-29T15:38:51.922Z,100003
2018-04-29T15:41:20.196Z,100008
2018-04-29T15:43:48.382Z,100001
2018-04-29T15:46:16.540Z,100009
2018-04-29T15:48:44.676Z,100013
2018-04-29T15:51:12.818Z,100016
2018-04-29T15:53:41.733Z,100021
2018-04-29T15:56:09.945Z,100014
2018-04-29T15:58:38.140Z,100018
2018-04-29T16:01:06.302Z,100008
2018-04-29T16:03:34.484Z,100010
2018-04-29T16:06:02.653Z,100018
2018-04-29T16:08:30.824Z,100020
2018-04-29T16:10:58.978Z,100011
2018-04-29T16:13:27.134Z,100014
2018-04-29T16:15:55.306Z,100002
2018-04-29T16:18:23.482Z,100006
2018-04-29T16:20:51.630Z,99998
2018-04-29T16:23:19.793Z,99985
2018-04-29T16:25:49.233Z,99986
2018-04-29T16:28:17.484Z,99993
2018-04-29T16:30:45.574Z,99994
2018-04-29T16:33:13.776Z,99996
2018-04-29T16:35:41.905Z,100000
2018-04-29T16:38:10.181Z,100003
2018-04-29T16:40:38.357Z,100001
2018-04-29T16:43:06.609Z,100008
2018-04-29T16:45:35.538Z,100012
2018-04-29T16:48:03.675Z,100003
2018-04-29T16:50:32.648Z,100001
2018-04-29T16:53:00.819Z,100005
2018-04-29T16:55:29.034Z,100009
2018-04-29T16:57:57.161Z,100009
2018-04-29T17:00:25.318Z,100003
2018-04-29T17:02:53.449Z,100007
2018-04-29T17:05:21.590Z,99988
2018-04-29T17:07:49.721Z,99973
2018-04-29T17:10:17.908Z,99960
2018-04-29T17:12:46.060Z,99958
2018-04-29T17:15:14.260Z,99943
2018-04-29T17:17:42.404Z,99936
2018-04-29T17:20:10.609Z,99934
2018-04-29T17:22:38.756Z,99933
2018-04-29T17:25:06.940Z,99933
2018-04-29T17:27:35.137Z,99928
2018-04-29T17:30:03.303Z,99923
2018-04-29T17:32:31.462Z,99915
2018-04-29T17:34:59.674Z,99919
2018-04-29T17:37:28.044Z,99916
2018-04-29T17:39:57.004Z,99919
2018-04-29T17:42:25.928Z,99926
2018-04-29T17:44:54.865Z,99930
2018-04-29T17:47:23.002Z,99930
2018-04-29T17:49:51.906Z,99924
2018-04-29T17:52:20.057Z,99921
2018-04-29T17:54:48.234Z,99914
2018-04-29T17:57:17.155Z,99920
2018-04-29T17:59:45.359Z,99913
2018-04-29T18:02:13.529Z,99910
2018-04-29T18:04:42.046Z,99907
2018-04-29T18:07:10.985Z,99904
2018-04-29T18:09:39.151Z,99904
2018-04-29T18:12:07.321Z,99894
2018-04-29T18:14:35.502Z,99902
2018-04-29T18:17:03.659Z,99891
2018-04-29T18:19:31.823Z,99885
2018-04-29T18:21:59.989Z,99873
2018-04-29T18:24:28.918Z,99870
2018-04-29T18:26:57.072Z,99875
2018-04-29T18:29:25.586Z,99873
2018-04-29T18:31:53.773Z,99886
2018-04-29T18:34:21.974Z,99893
2018-04-29T18:36:50.912Z,99903
2018-04-29T18:39:19.261Z,99901
2018-04-29T18:41:47.503Z,99901
2018-04-29T18:44:16.479Z,99904
2018-04-29T18:46:44.636Z,99910
2018-04-29T18:49:12.816Z,99906
2018-04-29T18:51:41.048Z,99902
2018-04-29T18:54:09.134Z,99894
2018-04-29T18:56:37.325Z,99888
2018-04-29T18:59:05.495Z,99895
2018-04-29T19:01:33.658Z,99905
2018-04-29T19:04:01.827Z,99904
2018-04-29T19:06:30.001Z,99898
2018-04-29T19:08:58.185Z,99903
2018-04-29T19:11:26.370Z,99902
2018-04-29T19:13:54.633Z,99914
2018-04-29T19:16:22.820Z,99905
2018-04-29T19:18:51.697Z,99896
2018-04-29T19:21:19.903Z,99892
2018-04-29T19:23:48.914Z,99894
2018-04-29T19:26:17.018Z,99879
2018-04-29T19:28:45.170Z,99883
2018-04-29T19:31:13.368Z,99873
2018-04-29T19:33:41.535Z,99881
2018-04-29T19:36:09.743Z,99881
2018-04-29T19:38:38.813Z,99885
2018-04-29T19:41:07.058Z,99879
2018-04-29T19:43:35.258Z,99885
2018-04-29T19:46:03.543Z,99875
2018-04-29T19:48:31.714Z,99874
2018-04-29T19:50:59.935Z,99862
2018-04-29T19:53:28.391Z,99858
2018-04-29T19:55:57.203Z,99854
2018-04-29T19:58:25.419Z,99847
2018-04-29T20:00:53.583Z,99849
2018-04-29T20:03:21.747Z,99846
2018-04-29T20:05:49.884Z,99849
2018-04-29T20:08:18.056Z,99802
2018-04-29T20:10:46.191Z,99852
2018-04-29T20:13:14.472Z,99847
2018-04-29T20:15:42.619Z,99843
2018-04-29T20:18:10.800Z,99839
2018-04-29T20:20:38.978Z,99831
2018-04-29T20:23:07.285Z,99826
2018-04-29T20:25:35.554Z,99836
2018-04-29T20:28:04.863Z,99826
2018-04-29T20:30:33.086Z,99784
2018-04-29T20:33:01.303Z,99825
2018-04-29T20:35:29.441Z,99825
2018-04-29T20:37:57.683Z,99818
2018-04-29T20:40:25.872Z,99818
2018-04-29T20:42:54.129Z,99823
2018-04-29T20:45:22.392Z,99812
2018-04-29T20:47:50.591Z,99806
2018-04-29T20:50:18.784Z,99796
2018-04-29T20:52:47.044Z,99801
2018-04-29T20:55:15.332Z,99791
2018-04-29T20:57:43.594Z,99794
2018-04-29T21:00:11.774Z,99783
2018-04-29T21:02:40.194Z,99775
2018-04-29T21:05:08.492Z,99779
2018-04-29T21:07:36.694Z,99768
2018-04-29T21:10:04.885Z,99777
2018-04-29T21:12:33.075Z,99762
2018-04-29T21:15:01.244Z,99758
2018-04-29T21:17:29.457Z,99750
2018-04-29T21:19:57.566Z,99747
2018-04-29T21:22:26.354Z,99753
2018-04-29T21:24:55.211Z,99751
2018-04-29T21:27:23.381Z,99751
2018-04-29T21:29:51.600Z,99745
2018-04-29T21:32:19.756Z,99739
2018-04-29T21:34:47.925Z,99743
2018-04-29T21:37:16.305Z,99734
2018-04-29T21:39:44.545Z,99735
2018-04-29T21:42:12.733Z,99728
2018-04-29T21:44:41.661Z,99726
2018-04-29T21:47:09.814Z,99722
2018-04-29T21:49:37.965Z,99716
2018-04-29T21:52:06.111Z,99718
2018-04-29T21:54:34.932Z,99717
2018-04-29T21:57:03.079Z,99709
2018-04-29T21:59:31.239Z,99710
2018-04-29T22:01:59.406Z,99699
2018-04-29T22:04:27.567Z,99708
2018-04-29T22:06:55.751Z,99702
2018-04-29T22:09:23.902Z,99695
2018-04-29T22:11:52.111Z,99700
2018-04-29T22:14:20.319Z,99697
2018-04-29T22:16:49.234Z,99683
2018-04-29T22:19:17.390Z,99683
2018-04-29T22:21:47.579Z,99685
2018-04-29T22:24:15.798Z,99679
2018-04-29T22:26:43.972Z,99666
2018-04-29T22:29:12.142Z,99665
2018-04-29T22:31:40.274Z,99652
2018-04-29T22:34:08.411Z,99662
2018-04-29T22:36:36.564Z,99646
2018-04-29T22:39:04.759Z,99646
2018-04-29T22:41:32.902Z,99646
2018-04-29T22:44:01.067Z,99649
2018-04-29T22:46:29.999Z,99651
2018-04-29T22:48:58.169Z,99649
2018-04-29T22:51:26.377Z,99644
2018-04-29T22:53:54.515Z,99646
2018-04-29T22:56:22.658Z,99643
2018-04-29T22:58:50.819Z,99635
2018-04-29T23:01:19.781Z,99637
2018-04-29T23:03:47.914Z,99636
2018-04-29T23:06:16.065Z,99634
2018-04-29T23:08:44.221Z,99632
2018-04-29T23:11:13.186Z,99631
2018-04-29T23:13:41.329Z,99628
2018-04-29T23:16:09.493Z,99634
2018-04-29T23:18:37.653Z,99633
2018-04-29T23:21:06.256Z,99638
2018-04-29T23:23:34.401Z,99622
2018-04-29T23:26:03.464Z,99622
2018-04-29T23:28:32.417Z,99618
2018-04-29T23:31:00.570Z,99615
2018-04-29T23:33:28.766Z,99602
2018-04-29T23:35:56.906Z,99605
2018-04-29T23:38:25.040Z,99595
2018-04-29T23:40:53.202Z,99592
2018-04-29T23:43:21.363Z,99579
2018-04-29T23:45:49.541Z,99592
2018-04-29T23:48:17.710Z,99579
2018-04-29T23:50:45.864Z,99578
2018-04-29T23:53:14.010Z,99576
2018-04-29T23:55:42.194Z,99567
2018-04-29T23:58:10.355Z,99564
